sensor_id;sensor_type;location;lat;lon;timestamp;temperature;humidity
54178;DHT22;40085;53.004;6.770;2022-11-15T00:00:51;7.20;99.90
54178;DHT22;40085;53.004;6.770;2022-11-15T00:03:18;7.10;99.90
54178;DHT22;40085;53.004;6.770;2022-11-15T00:05:44;7.00;99.90
54178;DHT22;40085;53.004;6.770;2022-11-15T00:08:10;7.00;99.90
54178;DHT22;40085;53.004;6.770;2022-11-15T00:10:36;7.00;99.90
54178;DHT22;40085;53.004;6.770;2022-11-15T00:13:10;7.00;99.90
54178;DHT22;40085;53.004;6.770;2022-11-15T00:15:37;7.00;99.90
54178;DHT22;40085;53.004;6.770;2022-11-15T00:18:04;7.00;99.90
54178;DHT22;40085;53.004;6.770;2022-11-15T00:20:31;7.00;99.90
54178;DHT22;40085;53.004;6.770;2022-11-15T00:22:58;7.00;99.90
54178;DHT22;40085;53.004;6.770;2022-11-15T00:25:24;6.90;99.90
54178;DHT22;40085;53.004;6.770;2022-11-15T00:27:49;6.90;99.90
54178;DHT22;40085;53.004;6.770;2022-11-15T00:30:17;6.90;99.90
54178;DHT22;40085;53.004;6.770;2022-11-15T00:32:43;7.00;99.90
54178;DHT22;40085;53.004;6.770;2022-11-15T00:35:08;7.00;99.90
54178;DHT22;40085;53.004;6.770;2022-11-15T00:37:34;7.00;99.90
54178;DHT22;40085;53.004;6.770;2022-11-15T00:40:00;7.10;99.90
54178;DHT22;40085;53.004;6.770;2022-11-15T00:42:25;7.30;99.90
54178;DHT22;40085;53.004;6.770;2022-11-15T00:44:51;7.40;99.90
54178;DHT22;40085;53.004;6.770;2022-11-15T00:47:16;7.20;99.90
54178;DHT22;40085;53.004;6.770;2022-11-15T00:49:42;8.00;99.90
54178;DHT22;40085;53.004;6.770;2022-11-15T00:52:08;7.40;99.90
54178;DHT22;40085;53.004;6.770;2022-11-15T00:54:33;7.20;99.90
54178;DHT22;40085;53.004;6.770;2022-11-15T00:56:59;7.30;99.90
54178;DHT22;40085;53.004;6.770;2022-11-15T00:59:24;7.60;99.90
54178;DHT22;40085;53.004;6.770;2022-11-15T01:01:50;7.50;99.90
54178;DHT22;40085;53.004;6.770;2022-11-15T01:04:16;7.40;99.90
54178;DHT22;40085;53.004;6.770;2022-11-15T01:06:41;7.60;99.90
54178;DHT22;40085;53.004;6.770;2022-11-15T01:09:07;7.40;99.90
54178;DHT22;40085;53.004;6.770;2022-11-15T01:11:33;7.50;99.90
54178;DHT22;40085;53.004;6.770;2022-11-15T01:13:58;7.50;99.90
54178;DHT22;40085;53.004;6.770;2022-11-15T01:16:24;7.50;99.90
54178;DHT22;40085;53.004;6.770;2022-11-15T01:18:50;7.60;99.90
54178;DHT22;40085;53.004;6.770;2022-11-15T01:21:18;8.00;99.90
54178;DHT22;40085;53.004;6.770;2022-11-15T01:23:44;8.00;99.90
54178;DHT22;40085;53.004;6.770;2022-11-15T01:26:12;7.60;99.90
54178;DHT22;40085;53.004;6.770;2022-11-15T01:28:40;7.60;99.90
54178;DHT22;40085;53.004;6.770;2022-11-15T01:31:11;7.60;99.90
54178;DHT22;40085;53.004;6.770;2022-11-15T01:33:37;7.60;99.90
54178;DHT22;40085;53.004;6.770;2022-11-15T01:36:04;7.60;99.90
54178;DHT22;40085;53.004;6.770;2022-11-15T01:38:30;7.60;99.90
54178;DHT22;40085;53.004;6.770;2022-11-15T01:40:56;7.60;99.90
54178;DHT22;40085;53.004;6.770;2022-11-15T01:43:33;7.60;99.90
54178;DHT22;40085;53.004;6.770;2022-11-15T01:48:50;7.70;99.90
54178;DHT22;40085;53.004;6.770;2022-11-15T01:51:17;7.90;99.90
54178;DHT22;40085;53.004;6.770;2022-11-15T01:53:46;7.60;99.90
54178;DHT22;40085;53.004;6.770;2022-11-15T01:56:16;7.70;99.90
54178;DHT22;40085;53.004;6.770;2022-11-15T01:58:44;8.10;99.90
54178;DHT22;40085;53.004;6.770;2022-11-15T02:01:12;7.70;99.90
54178;DHT22;40085;53.004;6.770;2022-11-15T02:03:44;7.70;99.90
54178;DHT22;40085;53.004;6.770;2022-11-15T02:06:13;7.70;99.90
54178;DHT22;40085;53.004;6.770;2022-11-15T02:08:39;7.70;99.90
54178;DHT22;40085;53.004;6.770;2022-11-15T02:11:08;7.70;99.90
54178;DHT22;40085;53.004;6.770;2022-11-15T02:13:33;7.80;99.90
54178;DHT22;40085;53.004;6.770;2022-11-15T02:21:47;7.70;99.90
54178;DHT22;40085;53.004;6.770;2022-11-15T02:32:18;7.80;99.90
54178;DHT22;40085;53.004;6.770;2022-11-15T02:37:55;7.80;99.90
54178;DHT22;40085;53.004;6.770;2022-11-15T02:40:25;7.80;99.90
54178;DHT22;40085;53.004;6.770;2022-11-15T02:42:59;7.80;99.90
54178;DHT22;40085;53.004;6.770;2022-11-15T02:45:48;8.40;99.90
54178;DHT22;40085;53.004;6.770;2022-11-15T02:48:15;7.80;99.90
54178;DHT22;40085;53.004;6.770;2022-11-15T02:50:42;7.80;99.90
54178;DHT22;40085;53.004;6.770;2022-11-15T02:53:09;7.80;99.90
54178;DHT22;40085;53.004;6.770;2022-11-15T02:55:41;7.80;99.90
54178;DHT22;40085;53.004;6.770;2022-11-15T03:01:12;7.90;99.90
54178;DHT22;40085;53.004;6.770;2022-11-15T03:11:19;7.90;99.90
54178;DHT22;40085;53.004;6.770;2022-11-15T03:14:09;7.90;99.90
54178;DHT22;40085;53.004;6.770;2022-11-15T03:17:14;8.00;99.90
54178;DHT22;40085;53.004;6.770;2022-11-15T03:22:11;7.90;99.90
54178;DHT22;40085;53.004;6.770;2022-11-15T03:24:38;8.00;99.90
54178;DHT22;40085;53.004;6.770;2022-11-15T03:27:06;8.00;99.90
54178;DHT22;40085;53.004;6.770;2022-11-15T03:29:35;7.90;99.90
54178;DHT22;40085;53.004;6.770;2022-11-15T03:32:12;7.80;99.90
54178;DHT22;40085;53.004;6.770;2022-11-15T03:34:52;8.00;99.90
54178;DHT22;40085;53.004;6.770;2022-11-15T03:37:24;8.00;99.90
54178;DHT22;40085;53.004;6.770;2022-11-15T03:39:51;8.00;99.90
54178;DHT22;40085;53.004;6.770;2022-11-15T03:42:39;8.60;99.90
54178;DHT22;40085;53.004;6.770;2022-11-15T03:45:22;8.00;99.90
54178;DHT22;40085;53.004;6.770;2022-11-15T03:48:00;8.00;99.90
54178;DHT22;40085;53.004;6.770;2022-11-15T03:50:27;8.00;99.90
54178;DHT22;40085;53.004;6.770;2022-11-15T03:52:55;8.10;99.90
54178;DHT22;40085;53.004;6.770;2022-11-15T03:55:21;8.10;99.90
54178;DHT22;40085;53.004;6.770;2022-11-15T03:57:50;8.10;99.90
54178;DHT22;40085;53.004;6.770;2022-11-15T04:00:17;8.10;99.90
54178;DHT22;40085;53.004;6.770;2022-11-15T04:02:42;8.10;99.90
54178;DHT22;40085;53.004;6.770;2022-11-15T04:05:08;8.10;99.90
54178;DHT22;40085;53.004;6.770;2022-11-15T04:07:34;8.10;99.90
54178;DHT22;40085;53.004;6.770;2022-11-15T04:09:59;8.30;99.90
54178;DHT22;40085;53.004;6.770;2022-11-15T04:12:39;8.30;99.90
54178;DHT22;40085;53.004;6.770;2022-11-15T04:15:08;8.30;99.90
54178;DHT22;40085;53.004;6.770;2022-11-15T04:17:42;8.20;99.90
54178;DHT22;40085;53.004;6.770;2022-11-15T04:20:17;8.20;99.90
54178;DHT22;40085;53.004;6.770;2022-11-15T04:23:05;8.20;99.90
54178;DHT22;40085;53.004;6.770;2022-11-15T04:25:53;8.20;99.90
54178;DHT22;40085;53.004;6.770;2022-11-15T04:28:20;8.20;99.90
54178;DHT22;40085;53.004;6.770;2022-11-15T04:30:45;8.40;99.90
54178;DHT22;40085;53.004;6.770;2022-11-15T04:33:11;8.60;99.90
54178;DHT22;40085;53.004;6.770;2022-11-15T04:35:37;8.40;99.90
54178;DHT22;40085;53.004;6.770;2022-11-15T04:38:05;8.40;99.90
54178;DHT22;40085;53.004;6.770;2022-11-15T04:40:31;8.50;99.90
54178;DHT22;40085;53.004;6.770;2022-11-15T04:42:57;8.50;99.90
54178;DHT22;40085;53.004;6.770;2022-11-15T04:45:23;8.60;99.90
54178;DHT22;40085;53.004;6.770;2022-11-15T04:47:49;8.50;99.90
54178;DHT22;40085;53.004;6.770;2022-11-15T04:50:15;9.10;99.90
54178;DHT22;40085;53.004;6.770;2022-11-15T04:52:43;8.60;99.90
54178;DHT22;40085;53.004;6.770;2022-11-15T04:55:10;8.70;99.90
54178;DHT22;40085;53.004;6.770;2022-11-15T04:57:37;8.60;99.90
54178;DHT22;40085;53.004;6.770;2022-11-15T05:00:08;9.10;99.90
54178;DHT22;40085;53.004;6.770;2022-11-15T05:02:34;8.70;99.90
54178;DHT22;40085;53.004;6.770;2022-11-15T05:05:18;8.70;99.90
54178;DHT22;40085;53.004;6.770;2022-11-15T05:07:43;8.60;99.90
54178;DHT22;40085;53.004;6.770;2022-11-15T05:10:09;8.70;99.90
54178;DHT22;40085;53.004;6.770;2022-11-15T05:12:35;8.80;99.90
54178;DHT22;40085;53.004;6.770;2022-11-15T05:15:01;8.60;99.90
54178;DHT22;40085;53.004;6.770;2022-11-15T05:17:26;8.50;99.90
54178;DHT22;40085;53.004;6.770;2022-11-15T05:19:52;8.50;99.90
54178;DHT22;40085;53.004;6.770;2022-11-15T05:22:18;8.60;99.90
54178;DHT22;40085;53.004;6.770;2022-11-15T05:24:44;8.50;99.90
54178;DHT22;40085;53.004;6.770;2022-11-15T05:27:10;8.60;99.90
54178;DHT22;40085;53.004;6.770;2022-11-15T05:29:35;8.50;99.90
54178;DHT22;40085;53.004;6.770;2022-11-15T05:32:03;8.50;99.90
54178;DHT22;40085;53.004;6.770;2022-11-15T05:34:30;8.50;99.90
54178;DHT22;40085;53.004;6.770;2022-11-15T05:36:56;8.50;99.90
54178;DHT22;40085;53.004;6.770;2022-11-15T05:39:22;8.60;99.90
54178;DHT22;40085;53.004;6.770;2022-11-15T05:41:57;8.60;99.90
54178;DHT22;40085;53.004;6.770;2022-11-15T05:44:24;8.60;99.90
54178;DHT22;40085;53.004;6.770;2022-11-15T05:46:53;8.70;99.90
54178;DHT22;40085;53.004;6.770;2022-11-15T05:49:22;8.70;99.90
54178;DHT22;40085;53.004;6.770;2022-11-15T05:51:50;8.70;99.90
54178;DHT22;40085;53.004;6.770;2022-11-15T05:54:17;8.70;99.90
54178;DHT22;40085;53.004;6.770;2022-11-15T05:56:44;8.80;99.90
54178;DHT22;40085;53.004;6.770;2022-11-15T06:01:37;8.90;99.90
54178;DHT22;40085;53.004;6.770;2022-11-15T06:04:03;8.90;99.90
54178;DHT22;40085;53.004;6.770;2022-11-15T06:06:29;8.90;99.90
54178;DHT22;40085;53.004;6.770;2022-11-15T06:08:55;9.00;99.90
54178;DHT22;40085;53.004;6.770;2022-11-15T06:11:21;9.00;99.90
54178;DHT22;40085;53.004;6.770;2022-11-15T06:13:46;9.00;99.90
54178;DHT22;40085;53.004;6.770;2022-11-15T06:16:12;9.10;99.90
54178;DHT22;40085;53.004;6.770;2022-11-15T06:18:38;9.20;99.90
54178;DHT22;40085;53.004;6.770;2022-11-15T06:21:04;9.20;99.90
54178;DHT22;40085;53.004;6.770;2022-11-15T06:23:34;9.30;99.90
54178;DHT22;40085;53.004;6.770;2022-11-15T06:26:01;9.30;99.90
54178;DHT22;40085;53.004;6.770;2022-11-15T06:28:31;9.30;99.90
54178;DHT22;40085;53.004;6.770;2022-11-15T06:31:04;9.40;99.90
54178;DHT22;40085;53.004;6.770;2022-11-15T06:33:30;9.40;99.90
54178;DHT22;40085;53.004;6.770;2022-11-15T06:35:59;9.50;99.90
54178;DHT22;40085;53.004;6.770;2022-11-15T06:40:51;9.60;99.90
54178;DHT22;40085;53.004;6.770;2022-11-15T06:43:16;9.60;99.90
54178;DHT22;40085;53.004;6.770;2022-11-15T06:45:42;9.60;99.90
54178;DHT22;40085;53.004;6.770;2022-11-15T06:48:07;9.90;99.90
54178;DHT22;40085;53.004;6.770;2022-11-15T06:50:33;9.70;99.90
54178;DHT22;40085;53.004;6.770;2022-11-15T06:53:03;9.70;99.90
54178;DHT22;40085;53.004;6.770;2022-11-15T06:55:29;9.80;99.90
54178;DHT22;40085;53.004;6.770;2022-11-15T06:57:55;9.80;99.90
54178;DHT22;40085;53.004;6.770;2022-11-15T07:00:21;9.80;99.90
54178;DHT22;40085;53.004;6.770;2022-11-15T07:02:47;9.90;99.90
54178;DHT22;40085;53.004;6.770;2022-11-15T07:05:15;9.90;99.90
54178;DHT22;40085;53.004;6.770;2022-11-15T07:07:41;9.90;99.90
54178;DHT22;40085;53.004;6.770;2022-11-15T07:10:07;9.90;99.90
54178;DHT22;40085;53.004;6.770;2022-11-15T07:12:33;10.00;99.90
54178;DHT22;40085;53.004;6.770;2022-11-15T07:14:59;10.00;99.90
54178;DHT22;40085;53.004;6.770;2022-11-15T07:17:25;10.10;99.90
54178;DHT22;40085;53.004;6.770;2022-11-15T07:19:50;10.00;99.90
54178;DHT22;40085;53.004;6.770;2022-11-15T07:22:16;10.80;99.90
54178;DHT22;40085;53.004;6.770;2022-11-15T07:24:42;10.00;99.90
54178;DHT22;40085;53.004;6.770;2022-11-15T07:27:07;10.10;99.90
54178;DHT22;40085;53.004;6.770;2022-11-15T07:29:33;10.10;99.90
54178;DHT22;40085;53.004;6.770;2022-11-15T07:31:58;10.10;99.90
54178;DHT22;40085;53.004;6.770;2022-11-15T07:34:24;10.20;99.90
54178;DHT22;40085;53.004;6.770;2022-11-15T07:36:50;10.20;99.90
54178;DHT22;40085;53.004;6.770;2022-11-15T07:39:16;10.20;99.90
54178;DHT22;40085;53.004;6.770;2022-11-15T07:41:41;10.20;99.90
54178;DHT22;40085;53.004;6.770;2022-11-15T07:44:09;10.20;99.90
54178;DHT22;40085;53.004;6.770;2022-11-15T07:46:34;10.20;99.90
54178;DHT22;40085;53.004;6.770;2022-11-15T07:49:00;10.30;99.90
54178;DHT22;40085;53.004;6.770;2022-11-15T07:51:26;10.30;99.90
54178;DHT22;40085;53.004;6.770;2022-11-15T07:53:51;10.40;99.90
54178;DHT22;40085;53.004;6.770;2022-11-15T07:56:17;10.40;99.90
54178;DHT22;40085;53.004;6.770;2022-11-15T07:58:45;10.40;99.90
54178;DHT22;40085;53.004;6.770;2022-11-15T08:01:11;10.40;99.90
54178;DHT22;40085;53.004;6.770;2022-11-15T08:03:37;10.50;99.90
54178;DHT22;40085;53.004;6.770;2022-11-15T08:08:29;10.60;99.90
54178;DHT22;40085;53.004;6.770;2022-11-15T08:10:57;10.60;99.90
54178;DHT22;40085;53.004;6.770;2022-11-15T08:13:23;10.60;99.90
54178;DHT22;40085;53.004;6.770;2022-11-15T08:15:48;10.70;99.90
54178;DHT22;40085;53.004;6.770;2022-11-15T08:18:16;10.90;99.90
54178;DHT22;40085;53.004;6.770;2022-11-15T08:20:42;10.60;99.90
54178;DHT22;40085;53.004;6.770;2022-11-15T08:23:10;10.80;99.90
54178;DHT22;40085;53.004;6.770;2022-11-15T08:25:37;10.60;99.90
54178;DHT22;40085;53.004;6.770;2022-11-15T08:28:05;10.70;99.90
54178;DHT22;40085;53.004;6.770;2022-11-15T08:30:35;10.70;99.90
54178;DHT22;40085;53.004;6.770;2022-11-15T08:33:01;10.70;99.90
54178;DHT22;40085;53.004;6.770;2022-11-15T08:35:28;10.80;99.90
54178;DHT22;40085;53.004;6.770;2022-11-15T08:37:54;10.80;99.90
54178;DHT22;40085;53.004;6.770;2022-11-15T08:40:19;10.90;99.90
54178;DHT22;40085;53.004;6.770;2022-11-15T08:42:46;11.00;99.90
54178;DHT22;40085;53.004;6.770;2022-11-15T08:45:12;11.00;99.90
54178;DHT22;40085;53.004;6.770;2022-11-15T08:47:37;11.10;99.90
54178;DHT22;40085;53.004;6.770;2022-11-15T08:50:03;11.10;99.90
54178;DHT22;40085;53.004;6.770;2022-11-15T08:52:29;11.10;99.90
54178;DHT22;40085;53.004;6.770;2022-11-15T08:54:55;11.10;99.90
54178;DHT22;40085;53.004;6.770;2022-11-15T08:57:20;11.40;99.90
54178;DHT22;40085;53.004;6.770;2022-11-15T08:59:46;11.20;99.90
54178;DHT22;40085;53.004;6.770;2022-11-15T09:02:16;11.20;99.90
54178;DHT22;40085;53.004;6.770;2022-11-15T09:04:42;11.20;99.90
54178;DHT22;40085;53.004;6.770;2022-11-15T09:07:11;11.40;99.90
54178;DHT22;40085;53.004;6.770;2022-11-15T09:09:38;11.30;99.90
54178;DHT22;40085;53.004;6.770;2022-11-15T09:12:04;11.20;99.90
54178;DHT22;40085;53.004;6.770;2022-11-15T09:14:30;11.30;99.90
54178;DHT22;40085;53.004;6.770;2022-11-15T09:16:56;11.30;99.90
54178;DHT22;40085;53.004;6.770;2022-11-15T09:19:22;11.40;99.90
54178;DHT22;40085;53.004;6.770;2022-11-15T09:21:47;11.40;99.90
54178;DHT22;40085;53.004;6.770;2022-11-15T09:24:13;11.60;99.90
54178;DHT22;40085;53.004;6.770;2022-11-15T09:26:40;11.50;99.90
54178;DHT22;40085;53.004;6.770;2022-11-15T09:29:06;11.50;99.90
54178;DHT22;40085;53.004;6.770;2022-11-15T09:31:32;11.50;99.90
54178;DHT22;40085;53.004;6.770;2022-11-15T09:33:57;11.60;99.90
54178;DHT22;40085;53.004;6.770;2022-11-15T09:36:23;11.90;99.90
54178;DHT22;40085;53.004;6.770;2022-11-15T09:38:49;11.60;99.90
54178;DHT22;40085;53.004;6.770;2022-11-15T09:47:02;11.70;99.90
54178;DHT22;40085;53.004;6.770;2022-11-15T09:49:32;11.60;99.90
54178;DHT22;40085;53.004;6.770;2022-11-15T09:51:58;11.60;99.90
54178;DHT22;40085;53.004;6.770;2022-11-15T09:54:35;11.60;99.90
54178;DHT22;40085;53.004;6.770;2022-11-15T10:05:22;11.60;99.90
54178;DHT22;40085;53.004;6.770;2022-11-15T10:13:03;11.60;99.90
54178;DHT22;40085;53.004;6.770;2022-11-15T10:15:29;11.60;99.90
54178;DHT22;40085;53.004;6.770;2022-11-15T10:18:15;11.60;99.90
54178;DHT22;40085;53.004;6.770;2022-11-15T10:20:56;11.80;99.90
54178;DHT22;40085;53.004;6.770;2022-11-15T10:23:23;11.60;99.90
54178;DHT22;40085;53.004;6.770;2022-11-15T10:25:57;11.50;99.90
54178;DHT22;40085;53.004;6.770;2022-11-15T10:28:30;11.60;99.90
54178;DHT22;40085;53.004;6.770;2022-11-15T10:31:00;11.60;99.90
54178;DHT22;40085;53.004;6.770;2022-11-15T10:41:18;11.60;99.90
54178;DHT22;40085;53.004;6.770;2022-11-15T10:43:46;11.50;99.90
54178;DHT22;40085;53.004;6.770;2022-11-15T10:46:26;11.50;99.90
54178;DHT22;40085;53.004;6.770;2022-11-15T10:48:52;11.50;99.90
54178;DHT22;40085;53.004;6.770;2022-11-15T10:51:24;11.70;99.90
54178;DHT22;40085;53.004;6.770;2022-11-15T10:53:54;11.60;99.90
54178;DHT22;40085;53.004;6.770;2022-11-15T10:56:24;11.70;99.90
54178;DHT22;40085;53.004;6.770;2022-11-15T10:58:56;11.70;99.90
54178;DHT22;40085;53.004;6.770;2022-11-15T11:01:24;11.70;99.90
54178;DHT22;40085;53.004;6.770;2022-11-15T11:04:07;11.70;99.90
54178;DHT22;40085;53.004;6.770;2022-11-15T11:06:57;11.80;99.90
54178;DHT22;40085;53.004;6.770;2022-11-15T11:11:58;11.90;99.90
54178;DHT22;40085;53.004;6.770;2022-11-15T11:14:33;11.90;99.90
54178;DHT22;40085;53.004;6.770;2022-11-15T11:20:07;12.20;99.90
54178;DHT22;40085;53.004;6.770;2022-11-15T11:25:34;12.40;99.90
54178;DHT22;40085;53.004;6.770;2022-11-15T11:42:25;13.00;99.90
54178;DHT22;40085;53.004;6.770;2022-11-15T11:47:22;13.00;99.90
54178;DHT22;40085;53.004;6.770;2022-11-15T11:49:59;13.20;99.90
54178;DHT22;40085;53.004;6.770;2022-11-15T11:52:34;13.40;99.90
54178;DHT22;40085;53.004;6.770;2022-11-15T11:55:03;13.70;99.90
54178;DHT22;40085;53.004;6.770;2022-11-15T11:57:51;13.90;99.90
54178;DHT22;40085;53.004;6.770;2022-11-15T12:00:23;14.10;99.90
54178;DHT22;40085;53.004;6.770;2022-11-15T12:05:43;13.90;99.90
54178;DHT22;40085;53.004;6.770;2022-11-15T12:08:23;13.60;99.90
54178;DHT22;40085;53.004;6.770;2022-11-15T12:11:22;13.20;99.90
54178;DHT22;40085;53.004;6.770;2022-11-15T12:13:48;13.00;99.90
54178;DHT22;40085;53.004;6.770;2022-11-15T12:16:21;12.80;99.90
54178;DHT22;40085;53.004;6.770;2022-11-15T12:18:52;12.70;99.90
54178;DHT22;40085;53.004;6.770;2022-11-15T12:24:00;12.50;99.90
54178;DHT22;40085;53.004;6.770;2022-11-15T12:26:37;12.40;99.90
54178;DHT22;40085;53.004;6.770;2022-11-15T12:29:16;12.30;99.90
54178;DHT22;40085;53.004;6.770;2022-11-15T12:31:48;12.20;99.90
54178;DHT22;40085;53.004;6.770;2022-11-15T12:36:51;12.10;99.90
54178;DHT22;40085;53.004;6.770;2022-11-15T12:39:17;12.10;99.90
54178;DHT22;40085;53.004;6.770;2022-11-15T12:59:51;12.10;99.90
54178;DHT22;40085;53.004;6.770;2022-11-15T13:02:31;12.20;99.90
54178;DHT22;40085;53.004;6.770;2022-11-15T13:17:44;12.50;99.90
54178;DHT22;40085;53.004;6.770;2022-11-15T13:30:50;12.50;99.90
54178;DHT22;40085;53.004;6.770;2022-11-15T13:33:20;12.50;99.90
54178;DHT22;40085;53.004;6.770;2022-11-15T13:35:49;12.40;99.90
54178;DHT22;40085;53.004;6.770;2022-11-15T13:38:25;12.40;99.90
54178;DHT22;40085;53.004;6.770;2022-11-15T13:40:54;12.40;99.90
54178;DHT22;40085;53.004;6.770;2022-11-15T13:43:31;12.30;99.90
54178;DHT22;40085;53.004;6.770;2022-11-15T13:46:18;12.30;99.90
54178;DHT22;40085;53.004;6.770;2022-11-15T13:48:46;12.20;99.90
54178;DHT22;40085;53.004;6.770;2022-11-15T13:53:53;12.10;99.90
54178;DHT22;40085;53.004;6.770;2022-11-15T13:56:20;12.10;99.90
54178;DHT22;40085;53.004;6.770;2022-11-15T13:58:48;12.10;99.90
54178;DHT22;40085;53.004;6.770;2022-11-15T14:01:20;12.10;99.90
54178;DHT22;40085;53.004;6.770;2022-11-15T14:03:56;12.10;99.90
54178;DHT22;40085;53.004;6.770;2022-11-15T14:06:25;12.10;99.90
54178;DHT22;40085;53.004;6.770;2022-11-15T14:12:01;12.00;99.90
54178;DHT22;40085;53.004;6.770;2022-11-15T14:14:28;12.10;99.90
54178;DHT22;40085;53.004;6.770;2022-11-15T14:16:56;11.90;99.90
54178;DHT22;40085;53.004;6.770;2022-11-15T14:22:12;11.80;99.90
54178;DHT22;40085;53.004;6.770;2022-11-15T14:24:39;11.90;99.90
54178;DHT22;40085;53.004;6.770;2022-11-15T14:27:24;11.80;99.90
54178;DHT22;40085;53.004;6.770;2022-11-15T14:29:51;11.80;99.90
54178;DHT22;40085;53.004;6.770;2022-11-15T14:32:43;11.70;99.90
54178;DHT22;40085;53.004;6.770;2022-11-15T14:35:18;11.70;99.90
54178;DHT22;40085;53.004;6.770;2022-11-15T14:37:46;11.70;99.90
54178;DHT22;40085;53.004;6.770;2022-11-15T14:40:20;11.60;99.90
54178;DHT22;40085;53.004;6.770;2022-11-15T14:42:47;11.50;99.90
54178;DHT22;40085;53.004;6.770;2022-11-15T14:45:16;11.50;99.90
54178;DHT22;40085;53.004;6.770;2022-11-15T14:47:42;11.50;99.90
54178;DHT22;40085;53.004;6.770;2022-11-15T14:50:17;11.40;99.90
54178;DHT22;40085;53.004;6.770;2022-11-15T14:52:43;11.40;99.90
54178;DHT22;40085;53.004;6.770;2022-11-15T14:55:23;11.30;99.90
54178;DHT22;40085;53.004;6.770;2022-11-15T14:57:49;11.30;99.90
54178;DHT22;40085;53.004;6.770;2022-11-15T15:00:15;11.20;99.90
54178;DHT22;40085;53.004;6.770;2022-11-15T15:02:42;11.10;99.90
54178;DHT22;40085;53.004;6.770;2022-11-15T15:05:18;11.10;99.90
54178;DHT22;40085;53.004;6.770;2022-11-15T15:07:44;11.00;99.90
54178;DHT22;40085;53.004;6.770;2022-11-15T15:10:10;11.00;99.90
54178;DHT22;40085;53.004;6.770;2022-11-15T15:12:36;10.90;99.90
54178;DHT22;40085;53.004;6.770;2022-11-15T15:15:02;10.90;99.90
54178;DHT22;40085;53.004;6.770;2022-11-15T15:17:28;10.80;99.90
54178;DHT22;40085;53.004;6.770;2022-11-15T15:19:54;10.80;99.90
54178;DHT22;40085;53.004;6.770;2022-11-15T15:22:20;10.70;99.90
54178;DHT22;40085;53.004;6.770;2022-11-15T15:24:50;10.70;99.90
54178;DHT22;40085;53.004;6.770;2022-11-15T15:27:16;10.80;99.90
54178;DHT22;40085;53.004;6.770;2022-11-15T15:29:42;10.60;99.90
54178;DHT22;40085;53.004;6.770;2022-11-15T15:32:09;10.50;99.90
54178;DHT22;40085;53.004;6.770;2022-11-15T15:34:35;10.50;99.90
54178;DHT22;40085;53.004;6.770;2022-11-15T15:37:26;10.50;99.90
54178;DHT22;40085;53.004;6.770;2022-11-15T15:39:54;10.50;99.90
54178;DHT22;40085;53.004;6.770;2022-11-15T15:42:21;10.50;99.90
54178;DHT22;40085;53.004;6.770;2022-11-15T15:44:47;10.50;99.90
54178;DHT22;40085;53.004;6.770;2022-11-15T15:47:19;10.70;99.90
54178;DHT22;40085;53.004;6.770;2022-11-15T15:49:46;10.50;99.90
54178;DHT22;40085;53.004;6.770;2022-11-15T15:52:12;10.50;99.90
54178;DHT22;40085;53.004;6.770;2022-11-15T15:54:38;10.50;99.90
54178;DHT22;40085;53.004;6.770;2022-11-15T15:57:05;10.50;99.90
54178;DHT22;40085;53.004;6.770;2022-11-15T15:59:31;10.50;99.90
54178;DHT22;40085;53.004;6.770;2022-11-15T16:01:57;10.50;99.90
54178;DHT22;40085;53.004;6.770;2022-11-15T16:04:23;10.90;99.90
54178;DHT22;40085;53.004;6.770;2022-11-15T16:06:49;10.50;99.90
54178;DHT22;40085;53.004;6.770;2022-11-15T16:09:18;10.50;99.90
54178;DHT22;40085;53.004;6.770;2022-11-15T16:12:04;10.40;99.90
54178;DHT22;40085;53.004;6.770;2022-11-15T16:14:31;10.40;99.90
54178;DHT22;40085;53.004;6.770;2022-11-15T16:16:57;10.40;99.90
54178;DHT22;40085;53.004;6.770;2022-11-15T16:19:23;10.40;99.90
54178;DHT22;40085;53.004;6.770;2022-11-15T16:21:49;10.40;99.90
54178;DHT22;40085;53.004;6.770;2022-11-15T16:24:15;10.50;99.90
54178;DHT22;40085;53.004;6.770;2022-11-15T16:29:09;10.40;99.90
54178;DHT22;40085;53.004;6.770;2022-11-15T16:34:01;10.40;99.90
54178;DHT22;40085;53.004;6.770;2022-11-15T16:36:27;10.50;99.90
54178;DHT22;40085;53.004;6.770;2022-11-15T16:38:55;10.40;99.90
54178;DHT22;40085;53.004;6.770;2022-11-15T16:41:21;10.50;99.90
54178;DHT22;40085;53.004;6.770;2022-11-15T16:43:48;10.40;99.90
54178;DHT22;40085;53.004;6.770;2022-11-15T16:46:20;10.50;99.90
54178;DHT22;40085;53.004;6.770;2022-11-15T16:48:46;10.50;99.90
54178;DHT22;40085;53.004;6.770;2022-11-15T16:51:12;10.50;99.90
54178;DHT22;40085;53.004;6.770;2022-11-15T16:53:38;10.60;99.90
54178;DHT22;40085;53.004;6.770;2022-11-15T16:58:40;10.40;99.90
54178;DHT22;40085;53.004;6.770;2022-11-15T17:01:05;10.40;99.90
54178;DHT22;40085;53.004;6.770;2022-11-15T17:03:31;10.40;99.90
54178;DHT22;40085;53.004;6.770;2022-11-15T17:05:57;10.40;99.90
54178;DHT22;40085;53.004;6.770;2022-11-15T17:08:24;10.50;99.90
54178;DHT22;40085;53.004;6.770;2022-11-15T17:10:50;10.40;99.90
54178;DHT22;40085;53.004;6.770;2022-11-15T17:13:15;10.50;99.90
54178;DHT22;40085;53.004;6.770;2022-11-15T17:15:41;10.50;99.90
54178;DHT22;40085;53.004;6.770;2022-11-15T17:18:10;10.40;99.90
54178;DHT22;40085;53.004;6.770;2022-11-15T17:20:37;10.40;99.90
54178;DHT22;40085;53.004;6.770;2022-11-15T17:23:04;10.40;99.90
54178;DHT22;40085;53.004;6.770;2022-11-15T17:25:36;11.10;99.90
54178;DHT22;40085;53.004;6.770;2022-11-15T17:28:02;10.40;99.90
54178;DHT22;40085;53.004;6.770;2022-11-15T17:30:28;10.40;99.90
54178;DHT22;40085;53.004;6.770;2022-11-15T17:32:53;10.40;99.90
54178;DHT22;40085;53.004;6.770;2022-11-15T17:35:20;10.40;99.90
54178;DHT22;40085;53.004;6.770;2022-11-15T17:37:46;10.40;99.90
54178;DHT22;40085;53.004;6.770;2022-11-15T17:40:12;10.50;99.90
54178;DHT22;40085;53.004;6.770;2022-11-15T17:42:40;10.50;99.90
54178;DHT22;40085;53.004;6.770;2022-11-15T17:45:07;10.70;99.90
54178;DHT22;40085;53.004;6.770;2022-11-15T17:47:32;10.50;99.90
54178;DHT22;40085;53.004;6.770;2022-11-15T17:49:58;10.50;99.90
54178;DHT22;40085;53.004;6.770;2022-11-15T17:52:24;10.50;99.90
54178;DHT22;40085;53.004;6.770;2022-11-15T17:54:49;10.50;99.90
54178;DHT22;40085;53.004;6.770;2022-11-15T17:57:15;10.40;99.90
54178;DHT22;40085;53.004;6.770;2022-11-15T17:59:41;10.40;99.90
54178;DHT22;40085;53.004;6.770;2022-11-15T18:02:08;10.40;99.90
54178;DHT22;40085;53.004;6.770;2022-11-15T18:04:34;10.40;99.90
54178;DHT22;40085;53.004;6.770;2022-11-15T18:06:59;10.40;99.90
54178;DHT22;40085;53.004;6.770;2022-11-15T18:09:25;10.30;99.90
54178;DHT22;40085;53.004;6.770;2022-11-15T18:11:51;10.40;99.90
54178;DHT22;40085;53.004;6.770;2022-11-15T18:14:19;10.40;99.90
54178;DHT22;40085;53.004;6.770;2022-11-15T18:16:44;10.40;99.90
54178;DHT22;40085;53.004;6.770;2022-11-15T18:19:10;10.40;99.90
54178;DHT22;40085;53.004;6.770;2022-11-15T18:21:41;10.40;99.90
54178;DHT22;40085;53.004;6.770;2022-11-15T18:24:28;10.40;99.90